createdAt,value
2023-05-03T00:07:57.118Z,14.42
2023-05-03T00:18:23.043Z,14.43
2023-05-03T00:28:48.762Z,14.45
2023-05-03T00:39:14.684Z,14.47
2023-05-03T00:49:40.327Z,14.49
2023-05-03T01:00:09.588Z,14.41
2023-05-03T01:10:43.312Z,14.33
2023-05-03T01:21:11.392Z,14.15
2023-05-03T01:31:43.562Z,14.04
2023-05-03T01:42:09.479Z,14.08
2023-05-03T01:52:35.274Z,14.17
2023-05-03T02:03:01.174Z,14.20
2023-05-03T02:13:27.219Z,14.15
2023-05-03T02:23:54.382Z,14.17
2023-05-03T02:34:20.964Z,14.25
2023-05-03T02:44:46.965Z,14.37
2023-05-03T02:55:13.003Z,14.51
2023-05-03T03:05:39.029Z,14.65
2023-05-03T03:16:05.074Z,14.61
2023-05-03T03:26:30.812Z,14.64
2023-05-03T03:36:57.311Z,14.66
2023-05-03T03:47:23.621Z,14.52
2023-05-03T03:57:49.901Z,14.44
2023-05-03T04:08:15.647Z,14.38
2023-05-03T04:18:41.736Z,14.29
2023-05-03T04:29:07.418Z,14.34
2023-05-03T04:39:33.280Z,14.41
2023-05-03T04:49:59.916Z,14.47
2023-05-03T05:00:26.368Z,14.47
2023-05-03T05:10:52.104Z,14.09
2023-05-03T05:21:17.554Z,13.66
2023-05-03T05:31:43.507Z,13.42
2023-05-03T05:42:09.834Z,13.20
2023-05-03T05:52:35.562Z,12.97
2023-05-03T06:03:01.488Z,12.68
2023-05-03T06:13:27.186Z,12.62
2023-05-03T06:23:52.904Z,12.49
2023-05-03T06:34:21.796Z,12.47
2023-05-03T06:44:48.309Z,12.40
2023-05-03T06:55:14.368Z,12.37
2023-05-03T07:05:40.473Z,12.39
2023-05-03T07:16:07.725Z,12.39
2023-05-03T07:26:33.372Z,12.43
2023-05-03T07:36:58.832Z,12.49
2023-05-03T07:47:25.158Z,12.53
2023-05-03T07:57:51.107Z,12.51
2023-05-03T08:08:17.281Z,12.50
2023-05-03T08:18:43.927Z,12.59
2023-05-03T08:29:10.148Z,12.63
2023-05-03T08:39:36.558Z,12.70
2023-05-03T08:50:05.082Z,12.70
2023-05-03T09:00:32.129Z,12.80
2023-05-03T09:10:58.247Z,12.93
2023-05-03T09:21:23.818Z,12.97
2023-05-03T09:32:01.957Z,12.96
2023-05-03T09:42:29.042Z,12.93
2023-05-03T09:52:56.386Z,12.87
2023-05-03T10:03:29.604Z,12.81
2023-05-03T10:13:56.102Z,12.79
2023-05-03T10:24:22.337Z,12.81
2023-05-03T10:34:48.054Z,12.76
2023-05-03T10:45:25.706Z,12.77
2023-05-03T10:56:08.495Z,12.94
2023-05-03T11:06:36.595Z,13.02
2023-05-03T11:17:02.646Z,13.01
2023-05-03T11:27:28.791Z,13.05
2023-05-03T11:37:54.968Z,13.20
2023-05-03T11:48:20.908Z,13.28
2023-05-03T11:58:58.558Z,13.21
2023-05-03T12:09:29.199Z,13.15
2023-05-03T12:30:46.764Z,13.18
2023-05-03T12:41:15.865Z,13.27
2023-05-03T12:51:55.459Z,13.38
2023-05-03T13:13:14.582Z,13.44
2023-05-03T13:23:40.265Z,13.40
2023-05-03T13:34:07.135Z,13.54
2023-05-03T13:44:32.825Z,13.67
2023-05-03T13:55:01.136Z,13.79
2023-05-03T14:05:27.349Z,13.78
2023-05-03T14:15:53.418Z,13.85
2023-05-03T14:26:19.701Z,13.90
2023-05-03T14:36:45.569Z,13.89
2023-05-03T14:47:11.913Z,13.98
2023-05-03T14:57:38.291Z,14.07
2023-05-03T15:08:04.173Z,14.14
2023-05-03T15:18:30.044Z,14.09
2023-05-03T15:28:55.563Z,13.94
2023-05-03T15:39:21.650Z,13.90
2023-05-03T15:49:47.351Z,13.87
2023-05-03T16:00:16.341Z,13.98
2023-05-03T16:10:43.066Z,14.03
2023-05-03T16:21:09.263Z,13.95
2023-05-03T16:31:35.455Z,14.11
2023-05-03T16:42:02.954Z,14.29
2023-05-03T16:52:29.016Z,14.54
2023-05-03T17:02:54.897Z,14.68
2023-05-03T17:13:20.783Z,14.69
2023-05-03T17:23:46.835Z,14.74
2023-05-03T17:34:12.892Z,14.76
2023-05-03T17:44:38.810Z,14.74
2023-05-03T17:55:04.709Z,14.72
2023-05-03T18:05:36.801Z,14.75
2023-05-03T18:16:02.350Z,14.76
2023-05-03T18:26:28.017Z,14.66
2023-05-03T18:36:54.022Z,14.52
2023-05-03T18:47:21.707Z,14.42
2023-05-03T18:57:47.419Z,14.32
2023-05-03T19:08:13.136Z,14.23
2023-05-03T19:18:42.055Z,14.06
2023-05-03T19:29:09.127Z,13.92
2023-05-03T19:39:37.854Z,13.88
2023-05-03T19:50:03.381Z,13.71
2023-05-03T20:00:29.996Z,13.37
2023-05-03T20:10:56.853Z,13.17
2023-05-03T20:21:22.533Z,13.00
2023-05-03T20:31:48.684Z,12.73
2023-05-03T20:42:15.284Z,12.50
2023-05-03T20:52:41.177Z,12.32
2023-05-03T21:03:07.329Z,12.23
2023-05-03T21:13:35.862Z,12.10
2023-05-03T21:24:01.857Z,12.14
2023-05-03T21:34:27.619Z,11.87
2023-05-03T21:44:53.498Z,11.64
2023-05-03T21:55:19.665Z,11.43
2023-05-03T22:05:47.980Z,11.33
2023-05-03T22:16:13.206Z,11.19
2023-05-03T22:26:39.146Z,11.04
2023-05-03T22:37:05.442Z,10.91
2023-05-03T22:47:31.247Z,10.73
2023-05-03T22:57:56.884Z,10.52
2023-05-03T23:08:23.437Z,10.52
2023-05-03T23:18:49.045Z,10.48
2023-05-03T23:29:14.817Z,10.37
2023-05-03T23:39:46.035Z,10.18
2023-05-03T23:50:12.915Z,10.06
